Terminal Aerodrome Forecast
Issued by NWS

Home | Current Version | Previous Version | Graphics & Text | Print | Product List | Glossary On
Versions: 1 2 3 4 5 6 7 8 9 10 11 12 13 14 15 16 17 18 19 20 21 22 23 24 25 26 27 28 29 30 31 32 33 34 35 36 37 38 39 40 41 42 43 44 45 46 47 48 49 50
421
FTUS43 KLOT 230647 AAA
TAFGYY
TAF AMD
KGYY 230647Z 2307/2406 35011KT 1SM BR OVC003
      TEMPO 2308/2312 1/2SM DZ FG VV002
     FM231400 35011KT 3SM BR OVC006
     FM231700 33008KT P6SM OVC015=

USA.gov is the U.S. government's official web portal to all federal, state and local government web resources and services.